Time;durP1;ratioP1;P1;durP2;ratioP2;P2;SDS_P1;SDS_P2;PMS_P1;PMS_P2;Temp;Humidity;BMP_temperature;BMP_pressure;BME280_temperature;BME280_humidity;BME280_pressure;Samples;Min_cycle;Max_cycle;Signal;HPM_P1;HPM_P2
2023/06/20 00:00:09;;;;;;;3.80;2.25;;;20.40;99.90;;;;;;5032210;28;20387;-82
2023/06/20 00:02:35;;;;;;;4.03;2.10;;;20.30;99.90;;;;;;5019222;28;20209;-82
2023/06/20 00:05:02;;;;;;;4.35;2.63;;;20.40;99.90;;;;;;5038551;28;20487;-81
2023/06/20 00:07:28;;;;;;;3.20;2.55;;;20.30;99.90;;;;;;4985943;28;20478;-82
2023/06/20 00:09:54;;;;;;;4.15;1.70;;;20.40;99.90;;;;;;4987602;28;20026;-82
2023/06/20 00:12:19;;;;;;;3.65;1.77;;;20.30;99.90;;;;;;5004954;28;20045;-82
2023/06/20 00:14:45;;;;;;;2.78;1.75;;;20.30;99.90;;;;;;4986644;28;20041;-82
2023/06/20 00:17:11;;;;;;;3.58;2.20;;;20.30;99.90;;;;;;5005829;28;20117;-82
2023/06/20 00:19:36;;;;;;;4.50;2.55;;;20.20;99.90;;;;;;4988851;28;20478;-81
2023/06/20 00:22:02;;;;;;;3.67;1.98;;;20.20;99.90;;;;;;5039087;28;20498;-82
2023/06/20 00:24:32;;;;;;;3.88;1.70;;;20.20;99.90;;;;;;5024248;28;20135;-81
2023/06/20 00:27:00;;;;;;;3.25;2.20;;;20.30;99.90;;;;;;5021454;28;20441;-81
2023/06/20 00:29:25;;;;;;;3.03;1.60;;;20.20;99.90;;;;;;4989355;28;20065;-82
2023/06/20 00:31:51;;;;;;;3.67;2.15;;;20.20;99.90;;;;;;4989635;28;20495;-81
2023/06/20 00:34:17;;;;;;;2.22;1.50;;;20.20;99.90;;;;;;5008920;28;20092;-81
2023/06/20 00:36:43;;;;;;;3.78;2.08;;;20.20;99.90;;;;;;4987254;28;20067;-81
2023/06/20 00:39:08;;;;;;;2.80;2.30;;;20.20;99.90;;;;;;5009696;28;20022;-82
2023/06/20 00:41:34;;;;;;;4.30;1.77;;;20.20;99.90;;;;;;5040361;28;20065;-81
2023/06/20 00:44:04;;;;;;;2.78;1.63;;;20.20;99.90;;;;;;5007270;28;20471;-82
2023/06/20 00:46:37;;;;;;;5.13;2.40;;;20.20;99.90;;;;;;5025578;28;20042;-82
2023/06/20 00:49:06;;;;;;;3.47;2.45;;;20.20;99.90;;;;;;4989181;28;20034;-82
2023/06/20 00:51:33;;;;;;;2.83;1.60;;;20.20;99.90;;;;;;4989542;28;20070;-82
2023/06/20 00:53:59;;;;;;;3.88;1.80;;;20.20;99.90;;;;;;5008852;28;20483;-81
2023/06/20 00:56:27;;;;;;;2.83;2.38;;;20.20;99.90;;;;;;4990495;28;20030;-82
2023/06/20 00:58:53;;;;;;;3.40;2.00;;;20.20;99.90;;;;;;5006999;28;20037;-82
2023/06/20 01:01:21;;;;;;;3.22;2.03;;;20.20;99.90;;;;;;5036915;28;20033;-81
2023/06/20 01:03:49;;;;;;;2.60;1.42;;;20.20;99.90;;;;;;5006972;28;20038;-81
2023/06/20 01:06:43;;;;;;;2.80;1.70;;;20.10;99.90;;;;;;4988934;28;20026;-82
2023/06/20 01:09:21;;;;;;;2.42;1.52;;;20.10;99.90;;;;;;4991836;28;20034;-82
2023/06/20 01:11:50;;;;;;;2.92;1.73;;;20.20;99.90;;;;;;5039803;28;20042;-81
2023/06/20 01:14:32;;;;;;;3.17;2.10;;;20.10;99.90;;;;;;5023549;28;20117;-82
2023/06/20 01:17:03;;;;;;;4.80;1.80;;;20.10;99.90;;;;;;5009027;28;20084;-81
2023/06/20 01:19:53;;;;;;;3.80;2.30;;;20.10;99.90;;;;;;5037738;28;20042;-81
2023/06/20 01:22:43;;;;;;;3.60;2.28;;;20.10;99.90;;;;;;4988533;28;20026;-81
2023/06/20 01:25:17;;;;;;;3.72;2.67;;;20.10;99.90;;;;;;5020842;28;20482;-82
2023/06/20 01:28:03;;;;;;;4.22;2.45;;;20.10;99.90;;;;;;5009082;28;20034;-81
2023/06/20 01:30:41;;;;;;;2.90;2.08;;;20.10;99.90;;;;;;5003692;28;20076;-82
2023/06/20 01:33:08;;;;;;;3.50;2.42;;;20.10;99.90;;;;;;5008956;28;20034;-81
2023/06/20 01:35:39;;;;;;;3.33;1.80;;;20.10;99.90;;;;;;4987845;28;20026;-81
2023/06/20 01:38:08;;;;;;;2.30;1.25;;;20.10;99.90;;;;;;5037173;28;20048;-81
2023/06/20 01:40:36;;;;;;;3.10;1.92;;;20.10;99.90;;;;;;5022437;28;20026;-82
2023/06/20 01:43:04;;;;;;;3.67;1.70;;;20.10;99.90;;;;;;5023103;28;20605;-81
2023/06/20 01:45:35;;;;;;;2.35;2.05;;;20.10;99.90;;;;;;4989355;28;20087;-82
2023/06/20 01:48:03;;;;;;;4.82;1.88;;;20.10;99.90;;;;;;4991447;28;20037;-82
2023/06/20 01:50:31;;;;;;;2.28;1.33;;;20.10;99.90;;;;;;5006683;28;20038;-82
2023/06/20 01:52:59;;;;;;;2.70;1.52;;;20.10;99.90;;;;;;5022494;28;20115;-81
2023/06/20 01:55:28;;;;;;;2.80;2.10;;;20.10;99.90;;;;;;5007650;28;20113;-80
2023/06/20 01:57:57;;;;;;;3.30;1.80;;;20.10;99.90;;;;;;5007638;28;20030;-81
2023/06/20 02:00:26;;;;;;;3.40;2.00;;;20.10;99.90;;;;;;5036110;28;20088;-82
2023/06/20 02:02:55;;;;;;;3.10;2.00;;;20.10;99.90;;;;;;4988920;28;20283;-81
2023/06/20 02:05:23;;;;;;;3.72;2.08;;;20.10;99.90;;;;;;5007790;28;20487;-82
2023/06/20 02:07:52;;;;;;;4.20;2.67;;;20.10;99.90;;;;;;5003449;28;20083;-82
2023/06/20 02:10:19;;;;;;;2.97;2.05;;;20.10;99.90;;;;;;4988522;28;20038;-81
2023/06/20 02:12:45;;;;;;;4.03;2.10;;;20.10;99.90;;;;;;5021792;28;20026;-81
2023/06/20 02:15:12;;;;;;;5.30;2.17;;;20.00;99.90;;;;;;5003640;28;20060;-81
2023/06/20 02:17:38;;;;;;;2.88;2.00;;;20.00;99.90;;;;;;5006294;28;20034;-81
2023/06/20 02:20:06;;;;;;;3.80;2.15;;;20.00;99.90;;;;;;5040358;28;20471;-81
2023/06/20 02:22:33;;;;;;;3.08;1.70;;;20.10;99.90;;;;;;4990680;28;20021;-81
2023/06/20 02:25:03;;;;;;;4.68;2.90;;;20.00;99.90;;;;;;5003808;28;20462;-81
2023/06/20 02:27:31;;;;;;;3.47;2.17;;;20.00;99.90;;;;;;5003924;28;20026;-82
2023/06/20 02:29:59;;;;;;;3.55;1.80;;;20.00;99.90;;;;;;5035516;28;20106;-81
2023/06/20 02:32:26;;;;;;;4.72;2.28;;;20.00;99.90;;;;;;5019356;28;20103;-82
2023/06/20 02:34:55;;;;;;;3.45;2.25;;;20.00;99.90;;;;;;4990732;28;20422;-80
2023/06/20 02:37:24;;;;;;;4.20;2.70;;;20.00;99.90;;;;;;5003974;28;20175;-82
2023/06/20 02:39:50;;;;;;;3.38;2.90;;;19.90;99.90;;;;;;5036800;28;20247;-81
2023/06/20 02:42:17;;;;;;;3.90;2.95;;;19.90;99.90;;;;;;5006961;28;20267;-81
2023/06/20 02:44:43;;;;;;;4.55;2.63;;;19.90;99.90;;;;;;5021401;28;20471;-81
2023/06/20 02:47:13;;;;;;;4.05;2.10;;;19.90;99.90;;;;;;5001958;28;20021;-82
2023/06/20 02:49:42;;;;;;;4.53;2.70;;;19.90;99.90;;;;;;5007602;28;20509;-81
2023/06/20 02:52:34;;;;;;;5.10;3.13;;;19.90;99.90;;;;;;4989262;28;20092;-82
2023/06/20 02:55:10;;;;;;;3.72;2.53;;;19.90;99.90;;;;;;4988025;28;20033;-82
2023/06/20 02:57:39;;;;;;;3.25;2.78;;;19.80;99.90;;;;;;5019460;28;20123;-82
2023/06/20 03:00:09;;;;;;;5.47;2.55;;;19.80;99.90;;;;;;5037925;28;20026;-82
2023/06/20 03:02:43;;;;;;;3.63;2.72;;;19.80;99.90;;;;;;5021338;28;20101;-82
2023/06/20 03:05:13;;;;;;;4.43;2.45;;;19.90;99.90;;;;;;5002355;28;20049;-82
2023/06/20 03:07:41;;;;;;;3.30;2.70;;;19.80;99.90;;;;;;4990394;28;20060;-82
2023/06/20 03:10:07;;;;;;;3.83;3.13;;;19.80;99.90;;;;;;5005734;28;20034;-82
2023/06/20 03:12:33;;;;;;;3.45;2.25;;;19.80;99.90;;;;;;5003268;28;20029;-81
2023/06/20 03:14:59;;;;;;;4.00;2.55;;;19.80;99.90;;;;;;4987880;28;20541;-82
2023/06/20 03:17:26;;;;;;;2.60;1.80;;;19.80;99.90;;;;;;4988267;28;20029;-82
2023/06/20 03:19:51;;;;;;;3.67;2.40;;;19.80;99.90;;;;;;5035942;28;20496;-82
2023/06/20 03:22:20;;;;;;;4.00;2.30;;;19.90;99.90;;;;;;5035913;28;20087;-83
2023/06/20 03:24:47;;;;;;;3.53;2.80;;;19.80;99.90;;;;;;4987198;28;20026;-82
2023/06/20 03:27:14;;;;;;;4.63;2.85;;;19.90;99.90;;;;;;5015756;28;20034;-81
2023/06/20 03:29:40;;;;;;;4.57;2.45;;;19.80;99.90;;;;;;5036272;28;20026;-80
2023/06/20 03:32:07;;;;;;;5.93;3.13;;;19.80;99.90;;;;;;5021103;28;20029;-81
2023/06/20 03:34:32;;;;;;;3.35;2.65;;;19.80;99.90;;;;;;4986523;28;20022;-82
2023/06/20 03:36:58;;;;;;;6.25;3.08;;;19.90;99.90;;;;;;5002893;28;20543;-81
2023/06/20 03:39:24;;;;;;;3.67;2.97;;;19.80;99.90;;;;;;4987068;28;20038;-81
2023/06/20 03:41:50;;;;;;;3.60;2.83;;;19.80;99.90;;;;;;4987343;28;20489;-82
2023/06/20 03:44:18;;;;;;;3.65;3.08;;;19.80;99.90;;;;;;5034908;28;20022;-82
2023/06/20 03:46:44;;;;;;;4.53;3.88;;;19.80;99.90;;;;;;4987797;28;20022;-83
2023/06/20 03:49:09;;;;;;;4.55;3.33;;;19.80;99.90;;;;;;4999379;28;20041;-82
2023/06/20 03:51:35;;;;;;;5.55;3.70;;;19.80;99.90;;;;;;5006117;28;20045;-82
2023/06/20 03:54:04;;;;;;;4.78;2.67;;;19.80;99.90;;;;;;4989366;28;20503;-81
2023/06/20 03:56:29;;;;;;;5.25;3.38;;;19.80;99.90;;;;;;5009132;28;20018;-80
2023/06/20 03:58:56;;;;;;;3.72;3.00;;;19.80;99.90;;;;;;4990707;28;20387;-82
2023/06/20 04:01:24;;;;;;;3.97;3.25;;;19.80;99.90;;;;;;4991541;28;20022;-82
2023/06/20 04:03:52;;;;;;;4.22;3.42;;;19.90;99.90;;;;;;5020505;28;20113;-82
2023/06/20 04:06:18;;;;;;;3.88;2.88;;;19.90;99.90;;;;;;5022650;28;20424;-82
2023/06/20 04:08:45;;;;;;;4.55;2.95;;;20.00;99.90;;;;;;4993105;28;20038;-82
2023/06/20 04:11:11;;;;;;;3.38;2.65;;;20.00;99.90;;;;;;4989369;28;20068;-82
2023/06/20 04:13:37;;;;;;;3.97;2.97;;;20.00;99.90;;;;;;5009432;28;20041;-81
2023/06/20 04:16:03;;;;;;;5.32;3.40;;;20.10;99.90;;;;;;5008232;28;20026;-82
2023/06/20 04:18:28;;;;;;;4.30;3.35;;;20.10;99.90;;;;;;4989381;28;20117;-82
2023/06/20 04:20:55;;;;;;;5.10;2.75;;;20.10;99.90;;;;;;4991602;28;20103;-82
2023/06/20 04:23:21;;;;;;;3.83;3.30;;;20.20;99.90;;;;;;4989918;28;20482;-82
2023/06/20 04:25:47;;;;;;;3.78;3.22;;;20.10;99.90;;;;;;4992203;28;20434;-82
2023/06/20 04:28:12;;;;;;;4.70;3.17;;;20.20;99.90;;;;;;5007931;28;20045;-81
2023/06/20 04:30:49;;;;;;;3.10;2.80;;;20.20;99.90;;;;;;5026008;28;20157;-81
2023/06/20 04:33:15;;;;;;;3.75;3.35;;;20.20;99.90;;;;;;5006622;28;20060;-81
2023/06/20 04:35:40;;;;;;;4.28;3.85;;;20.20;99.90;;;;;;5008185;28;20026;-82
2023/06/20 04:38:07;;;;;;;3.38;2.63;;;20.20;99.90;;;;;;4987153;28;20038;-82
2023/06/20 04:40:33;;;;;;;3.47;3.03;;;20.20;99.90;;;;;;4992048;28;20112;-80
2023/06/20 04:42:58;;;;;;;3.15;2.85;;;20.20;99.90;;;;;;5008287;28;20169;-81
2023/06/20 04:45:24;;;;;;;4.65;3.30;;;20.20;99.90;;;;;;4991795;28;20037;-82
2023/06/20 04:47:50;;;;;;;5.28;2.88;;;20.20;99.90;;;;;;5009276;28;20045;-81
2023/06/20 04:50:16;;;;;;;4.95;3.60;;;20.20;99.90;;;;;;5005872;28;20038;-81
2023/06/20 04:52:42;;;;;;;5.05;4.20;;;20.20;99.90;;;;;;5007087;28;20044;-81
2023/06/20 04:55:08;;;;;;;4.15;3.30;;;20.20;99.90;;;;;;4986345;28;20026;-81
2023/06/20 04:57:34;;;;;;;3.70;3.30;;;20.30;99.90;;;;;;4991115;28;20076;-81
2023/06/20 05:00:00;;;;;;;4.78;4.13;;;20.30;99.90;;;;;;4989435;28;20045;-81
2023/06/20 05:02:26;;;;;;;4.30;3.60;;;20.30;99.90;;;;;;4989143;28;20030;-81
2023/06/20 05:04:52;;;;;;;5.90;3.45;;;20.40;99.90;;;;;;4989959;28;20537;-81
2023/06/20 05:07:18;;;;;;;4.75;3.80;;;20.40;99.90;;;;;;5007266;28;20050;-82
2023/06/20 05:09:44;;;;;;;4.85;3.60;;;20.30;99.90;;;;;;5007805;28;20050;-82
2023/06/20 05:12:10;;;;;;;5.28;4.05;;;20.30;99.90;;;;;;4987833;28;20062;-83
2023/06/20 05:14:35;;;;;;;4.20;3.65;;;20.30;99.90;;;;;;5024610;28;20018;-81
2023/06/20 05:17:01;;;;;;;3.78;3.00;;;20.40;99.90;;;;;;5004524;28;20536;-82
2023/06/20 05:19:27;;;;;;;3.20;2.90;;;20.40;99.90;;;;;;5005641;28;20442;-80
2023/06/20 05:21:52;;;;;;;6.43;4.10;;;20.40;99.90;;;;;;4977428;28;20422;-81
2023/06/20 05:24:18;;;;;;;3.47;3.17;;;20.40;99.90;;;;;;4991563;28;20131;-81
2023/06/20 05:26:44;;;;;;;4.35;3.95;;;20.40;99.90;;;;;;4977918;28;20053;-81
2023/06/20 05:29:09;;;;;;;3.75;3.35;;;20.50;99.90;;;;;;4981699;28;20033;-80
2023/06/20 05:31:41;;;;;;;3.70;3.03;;;20.50;99.90;;;;;;4977627;28;20568;-81
2023/06/20 05:34:07;;;;;;;3.78;3.30;;;20.60;99.90;;;;;;5011125;28;20164;-81
2023/06/20 05:36:33;;;;;;;4.35;3.80;;;20.60;99.90;;;;;;5028855;28;20037;-82
2023/06/20 05:38:59;;;;;;;4.47;4.07;;;20.70;99.90;;;;;;4977704;28;20029;-83
2023/06/20 05:41:25;;;;;;;3.78;3.40;;;20.70;99.90;;;;;;4979018;28;20378;-83
2023/06/20 05:43:51;;;;;;;4.88;3.63;;;20.80;99.90;;;;;;4992351;28;20832;-82
2023/06/20 05:46:17;;;;;;;4.72;3.03;;;20.80;99.90;;;;;;4994182;28;20041;-80
2023/06/20 05:48:43;;;;;;;4.47;4.07;;;21.00;99.90;;;;;;4993429;28;20112;-82
2023/06/20 05:51:15;;;;;;;4.10;3.58;;;21.00;99.90;;;;;;4991647;28;20735;-82
2023/06/20 05:53:41;;;;;;;4.10;3.40;;;21.10;99.90;;;;;;4977708;28;20044;-82
2023/06/20 05:56:13;;;;;;;3.55;3.20;;;21.20;99.90;;;;;;4977873;28;20034;-82
2023/06/20 05:58:39;;;;;;;3.95;2.90;;;21.40;99.90;;;;;;4977883;28;20044;-81
2023/06/20 06:01:14;;;;;;;6.30;3.85;;;21.70;99.90;;;;;;4996714;28;20038;-96
2023/06/20 06:03:40;;;;;;;4.13;3.38;;;22.00;99.90;;;;;;4980194;28;20044;-93
2023/06/20 06:06:09;;;;;;;4.45;3.38;;;22.30;99.90;;;;;;4979390;28;20180;-92
2023/06/20 06:08:36;;;;;;;3.50;3.20;;;22.40;99.90;;;;;;4980505;28;20767;-94
2023/06/20 06:11:02;;;;;;;5.72;4.07;;;22.30;99.90;;;;;;4980096;28;20076;-94
2023/06/20 06:13:28;;;;;;;4.15;3.70;;;22.20;99.90;;;;;;5013652;28;20470;-92
2023/06/20 06:15:54;;;;;;;4.13;3.72;;;22.20;99.90;;;;;;4978227;28;20084;-92
2023/06/20 06:18:20;;;;;;;3.67;3.35;;;22.20;99.90;;;;;;4980791;28;20340;-93
2023/06/20 06:20:54;;;;;;;4.78;4.10;;;22.30;99.90;;;;;;4982190;28;20129;-93
2023/06/20 06:23:20;;;;;;;4.80;4.18;;;22.80;99.90;;;;;;4987622;28;20036;-93
2023/06/20 06:25:46;;;;;;;5.22;4.00;;;23.00;99.90;;;;;;4994934;28;20038;-94
2023/06/20 06:28:12;;;;;;;4.68;4.18;;;23.10;99.90;;;;;;4976627;28;20038;-82
2023/06/20 06:30:38;;;;;;;3.97;3.67;;;23.10;99.90;;;;;;4976158;28;20037;-81
2023/06/20 06:33:07;;;;;;;4.32;3.88;;;23.10;99.90;;;;;;4993666;28;20036;-82
2023/06/20 06:35:33;;;;;;;5.20;3.93;;;23.20;99.90;;;;;;4989517;28;20474;-82
2023/06/20 06:37:59;;;;;;;6.93;5.22;;;23.20;99.90;;;;;;5009210;28;20066;-82
2023/06/20 06:40:25;;;;;;;5.35;4.63;;;23.30;99.90;;;;;;4976717;28;20128;-82
2023/06/20 06:42:51;;;;;;;5.07;4.45;;;23.30;99.90;;;;;;4993120;28;20057;-81
2023/06/20 06:45:18;;;;;;;5.00;4.53;;;23.40;99.90;;;;;;4975018;28;20164;-82
2023/06/20 06:47:43;;;;;;;5.13;3.83;;;23.60;99.90;;;;;;4975757;28;20129;-83
2023/06/20 06:50:09;;;;;;;4.20;3.80;;;23.60;99.90;;;;;;4984491;28;20121;-82
2023/06/20 06:52:35;;;;;;;3.97;3.38;;;23.60;99.90;;;;;;4990872;28;20649;-82
2023/06/20 06:55:01;;;;;;;4.57;3.38;;;23.70;99.90;;;;;;4972145;28;20033;-83
2023/06/20 06:57:26;;;;;;;9.48;3.70;;;23.50;99.90;;;;;;4973852;28;20038;-83
2023/06/20 06:59:53;;;;;;;4.90;3.45;;;23.50;99.90;;;;;;4973039;28;20034;-81
2023/06/20 07:02:18;;;;;;;4.53;3.50;;;23.50;99.90;;;;;;4973623;28;20026;-82
2023/06/20 07:04:44;;;;;;;5.28;4.38;;;23.70;99.90;;;;;;4988139;28;20151;-82
2023/06/20 07:07:10;;;;;;;4.95;3.53;;;23.90;99.90;;;;;;4972429;28;20595;-82
2023/06/20 07:09:36;;;;;;;3.63;3.15;;;24.20;99.90;;;;;;4973460;28;20026;-82
2023/06/20 07:12:04;;;;;;;3.63;3.33;;;24.30;99.90;;;;;;4974025;28;20607;-82
2023/06/20 07:14:30;;;;;;;3.97;3.38;;;24.30;99.90;;;;;;4988822;28;20064;-82
2023/06/20 07:16:55;;;;;;;4.32;3.72;;;24.20;99.90;;;;;;4973101;28;20037;-81
2023/06/20 07:19:21;;;;;;;3.50;3.20;;;24.30;99.90;;;;;;4990254;28;20053;-82
2023/06/20 07:21:47;;;;;;;3.92;2.83;;;24.30;99.90;;;;;;4972133;28;20472;-82
2023/06/20 07:24:12;;;;;;;3.22;2.92;;;24.40;99.90;;;;;;4993204;28;20478;-82
2023/06/20 07:26:38;;;;;;;4.13;2.80;;;24.40;99.90;;;;;;4989503;28;20344;-82
2023/06/20 07:29:04;;;;;;;3.20;2.65;;;24.40;99.90;;;;;;4977217;28;20671;-83
2023/06/20 07:31:30;;;;;;;3.63;3.22;;;24.40;99.90;;;;;;4996658;28;20057;-82
2023/06/20 07:33:56;;;;;;;3.67;3.28;;;24.90;99.90;;;;;;4979050;28;20041;-83
2023/06/20 07:36:21;;;;;;;3.55;2.60;;;25.90;99.90;;;;;;4984135;28;20395;-82
2023/06/20 07:38:47;;;;;;;3.25;2.67;;;26.70;99.90;;;;;;4976757;28;20034;-82
2023/06/20 07:41:13;;;;;;;3.42;2.58;;;27.40;99.90;;;;;;4975669;28;20042;-82
2023/06/20 07:43:38;;;;;;;3.42;2.60;;;27.50;99.90;;;;;;4992172;28;20030;-82
2023/06/20 07:46:04;;;;;;;3.50;3.00;;;27.80;99.90;;;;;;4975290;28;20487;-82
2023/06/20 07:48:30;;;;;;;2.42;2.05;;;27.90;99.90;;;;;;4977280;28;20057;-83
2023/06/20 07:50:56;;;;;;;5.30;3.15;;;27.70;99.90;;;;;;4983072;28;20164;-83
2023/06/20 07:53:23;;;;;;;3.80;3.38;;;27.20;99.90;;;;;;4992117;28;20049;-82
2023/06/20 07:55:49;;;;;;;3.38;2.38;;;27.30;99.90;;;;;;4975709;28;20653;-80
2023/06/20 07:58:14;;;;;;;3.13;2.58;;;27.50;99.90;;;;;;4990616;28;20076;-80
2023/06/20 08:00:40;;;;;;;2.42;1.98;;;27.50;99.90;;;;;;5008285;28;20113;-83
2023/06/20 08:03:07;;;;;;;3.17;2.20;;;28.00;99.90;;;;;;4986802;28;20034;-83
2023/06/20 08:05:32;;;;;;;2.38;1.92;;;28.40;99.90;;;;;;5001293;28;20564;-82
2023/06/20 08:07:58;;;;;;;2.70;1.98;;;28.80;99.90;;;;;;5003356;28;20034;-82
2023/06/20 08:10:24;;;;;;;2.55;1.52;;;29.00;99.90;;;;;;4984490;28;20064;-83
2023/06/20 08:12:50;;;;;;;2.60;1.90;;;29.00;99.90;;;;;;4982799;28;20034;-82
2023/06/20 08:15:15;;;;;;;3.13;1.92;;;28.70;99.90;;;;;;5001790;28;20030;-80
2023/06/20 08:17:41;;;;;;;2.67;1.30;;;28.80;99.90;;;;;;5004254;28;20090;-80
2023/06/20 08:20:09;;;;;;;2.42;1.13;;;28.60;99.90;;;;;;4988379;28;20026;-80
2023/06/20 08:22:35;;;;;;;3.30;1.15;;;28.80;99.90;;;;;;5003218;28;20908;-80
2023/06/20 08:25:01;;;;;;;1.80;1.20;;;29.20;99.90;;;;;;5012302;28;20549;-80
2023/06/20 08:27:27;;;;;;;1.98;1.02;;;29.10;99.90;;;;;;4990633;28;20598;-80
2023/06/20 08:29:53;;;;;;;2.20;0.90;;;29.50;99.90;;;;;;4992061;28;20033;-81
2023/06/20 08:32:19;;;;;;;1.33;0.77;;;29.40;99.90;;;;;;5008857;28;20040;-81
2023/06/20 08:34:49;;;;;;;1.83;0.80;;;29.20;99.90;;;;;;4992718;28;20108;-81
2023/06/20 08:37:18;;;;;;;2.15;0.90;;;29.30;99.90;;;;;;4974706;28;20044;-81
2023/06/20 08:39:44;;;;;;;;;;;29.70;99.90;;;;;;4983985;28;20033;-80
2023/06/20 08:42:12;;;;;;;1.80;0.88;;;29.70;99.90;;;;;;5008232;28;19924;-82
2023/06/20 08:44:38;;;;;;;1.90;0.80;;;30.00;99.90;;;;;;4975553;28;20269;-81
2023/06/20 08:47:04;;;;;;;1.55;0.70;;;30.00;99.90;;;;;;4976052;28;20137;-81
2023/06/20 08:49:30;;;;;;;1.88;0.80;;;30.10;99.90;;;;;;4991711;28;20406;-80
2023/06/20 08:52:00;;;;;;;1.30;0.70;;;30.10;99.90;;;;;;4999048;28;20069;-80
2023/06/20 08:54:30;;;;;;;2.63;0.90;;;30.30;99.90;;;;;;4976040;28;20064;-80
2023/06/20 08:56:56;;;;;;;1.70;0.90;;;30.00;99.90;;;;;;4992020;28;20030;-80
2023/06/20 08:59:22;;;;;;;1.30;0.70;;;30.00;99.90;;;;;;4982833;28;20125;-82
2023/06/20 09:01:48;;;;;;;1.88;1.00;;;30.50;99.90;;;;;;4982264;28;20516;-81
2023/06/20 09:04:14;;;;;;;2.45;0.88;;;30.00;99.90;;;;;;4992081;28;20384;-81
2023/06/20 09:06:39;;;;;;;1.20;0.73;;;30.00;99.90;;;;;;4973979;28;20498;-81
2023/06/20 09:09:06;;;;;;;2.25;0.90;;;30.20;99.90;;;;;;5008045;28;20081;-81
2023/06/20 09:11:36;;;;;;;1.70;0.95;;;30.40;99.90;;;;;;4975594;28;20120;-81
2023/06/20 09:14:02;;;;;;;2.05;1.00;;;30.60;99.90;;;;;;4993318;28;20052;-81
2023/06/20 09:16:28;;;;;;;2.38;1.10;;;30.60;99.90;;;;;;4990544;28;20609;-82
2023/06/20 09:19:03;;;;;;;2.33;1.23;;;30.40;99.90;;;;;;4975144;28;20069;-80
2023/06/20 09:21:29;;;;;;;1.73;1.10;;;30.20;99.90;;;;;;5024383;28;20502;-80
2023/06/20 09:24:03;;;;;;;2.30;0.88;;;29.90;99.90;;;;;;4993178;28;20044;-81
2023/06/20 09:26:30;;;;;;;1.85;1.00;;;29.70;99.90;;;;;;4989889;28;20521;-81
2023/06/20 09:29:14;;;;;;;1.67;0.90;;;29.40;99.90;;;;;;4975981;28;20042;-81
2023/06/20 09:31:50;;;;;;;2.13;1.35;;;30.00;99.90;;;;;;4991986;28;20088;-81
2023/06/20 09:34:19;;;;;;;1.85;0.98;;;30.20;99.90;;;;;;4973969;28;21835;-81
2023/06/20 09:36:46;;;;;;;3.03;0.82;;;30.70;99.90;;;;;;4990921;28;20025;-80
2023/06/20 09:39:17;;;;;;;1.75;0.77;;;31.00;99.90;;;;;;4991057;28;20038;-81
2023/06/20 09:41:49;;;;;;;1.65;0.85;;;31.00;99.90;;;;;;4990744;28;20120;-80
2023/06/20 09:44:19;;;;;;;2.15;0.80;;;31.10;99.90;;;;;;4993976;28;20042;-80
2023/06/20 09:46:45;;;;;;;3.45;1.20;;;31.50;99.90;;;;;;4989948;28;20514;-81
2023/06/20 09:49:12;;;;;;;2.10;1.10;;;30.90;99.90;;;;;;4990907;28;20463;-83
2023/06/20 09:51:44;;;;;;;1.92;1.00;;;31.00;99.90;;;;;;5007109;28;20348;-80
2023/06/20 09:54:15;;;;;;;2.85;1.23;;;30.80;99.90;;;;;;4993437;28;20095;-82
2023/06/20 09:56:50;;;;;;;2.20;1.20;;;30.30;99.90;;;;;;4989143;28;20034;-82
2023/06/20 09:59:16;;;;;;;2.13;0.80;;;29.80;99.90;;;;;;4991229;28;20034;-81
2023/06/20 10:01:42;;;;;;;3.38;1.05;;;30.70;99.90;;;;;;4991593;28;20053;-80
2023/06/20 10:04:09;;;;;;;2.25;1.45;;;31.00;99.90;;;;;;4993322;28;20430;-81
2023/06/20 10:06:38;;;;;;;2.10;1.10;;;30.90;99.90;;;;;;4991176;28;20605;-80
2023/06/20 10:09:07;;;;;;;3.15;1.60;;;31.30;99.90;;;;;;4990990;28;20209;-81
2023/06/20 10:11:37;;;;;;;3.35;1.38;;;31.00;99.90;;;;;;4992553;28;20054;-82
2023/06/20 10:14:04;;;;;;;2.42;1.33;;;30.50;99.90;;;;;;4992038;28;20470;-80
2023/06/20 10:16:30;;;;;;;1.63;0.80;;;30.10;99.90;;;;;;5004657;28;20057;-81
2023/06/20 10:18:56;;;;;;;3.22;1.30;;;29.90;99.90;;;;;;4991896;28;20026;-81
2023/06/20 10:21:59;;;;;;;3.00;0.93;;;30.60;99.90;;;;;;5023576;28;20886;-81
2023/06/20 10:24:27;;;;;;;1.27;0.70;;;29.80;99.90;;;;;;4991506;28;20030;-79
2023/06/20 10:27:01;;;;;;;1.77;1.05;;;30.30;99.90;;;;;;4990149;28;20083;-82
2023/06/20 10:29:28;;;;;;;2.00;0.60;;;31.30;99.90;;;;;;4974392;28;20041;-81
2023/06/20 10:32:04;;;;;;;1.88;0.60;;;31.20;99.90;;;;;;4981721;28;20034;-82
2023/06/20 10:34:38;;;;;;;2.13;0.80;;;30.30;99.90;;;;;;4988409;28;20029;-82
2023/06/20 10:37:18;;;;;;;1.70;0.80;;;30.20;99.90;;;;;;4988721;28;20069;-82
2023/06/20 10:39:52;;;;;;;1.35;0.60;;;30.90;99.90;;;;;;4990098;28;20030;-82
2023/06/20 10:42:43;;;;;;;1.10;0.50;;;31.60;99.90;;;;;;4989622;28;20038;-82
2023/06/20 10:45:29;;;;;;;1.25;0.52;;;32.10;99.90;;;;;;5004614;28;20469;-82
2023/06/20 10:47:56;;;;;;;1.25;0.60;;;32.10;99.90;;;;;;4989625;28;20119;-82
2023/06/20 10:50:23;;;;;;;1.83;0.73;;;31.70;99.90;;;;;;4989277;28;20058;-82
2023/06/20 10:52:49;;;;;;;1.02;0.60;;;31.90;99.90;;;;;;4990209;28;20514;-82
2023/06/20 10:55:28;;;;;;;1.25;0.65;;;32.20;99.90;;;;;;4990154;28;20036;-83
2023/06/20 10:57:55;;;;;;;1.00;0.60;;;31.60;99.90;;;;;;4991853;28;20037;-81
2023/06/20 11:00:22;;;;;;;1.17;0.50;;;30.90;99.90;;;;;;4988141;28;20460;-82
2023/06/20 11:02:49;;;;;;;1.50;0.70;;;31.00;99.90;;;;;;4973576;28;20044;-83
2023/06/20 11:05:14;;;;;;;1.30;0.50;;;30.70;99.90;;;;;;4986395;28;20061;-82
2023/06/20 11:08:00;;;;;;;1.30;0.70;;;31.00;99.90;;;;;;4989419;28;20561;-83
2023/06/20 11:10:37;;;;;;;1.02;0.60;;;31.10;99.90;;;;;;5021459;28;20030;-82
2023/06/20 11:13:06;;;;;;;1.25;0.50;;;31.10;99.90;;;;;;4980387;28;20419;-82
2023/06/20 11:15:34;;;;;;;2.85;0.60;;;31.30;99.90;;;;;;4987556;28;20844;-82
2023/06/20 11:18:05;;;;;;;2.17;0.50;;;31.90;99.90;;;;;;4989555;28;20497;-82
2023/06/20 11:20:36;;;;;;;1.52;0.60;;;31.90;99.90;;;;;;5003855;28;20034;-81
2023/06/20 11:23:04;;;;;;;1.58;0.60;;;32.10;99.90;;;;;;5005923;28;20478;-81
2023/06/20 11:25:32;;;;;;;1.27;0.60;;;31.50;99.90;;;;;;4988991;28;20582;-82
2023/06/20 11:28:15;;;;;;;1.13;0.50;;;31.70;99.90;;;;;;4973341;28;20141;-83
2023/06/20 11:30:42;;;;;;;1.73;0.60;;;31.80;99.80;;;;;;5021334;28;20044;-83
2023/06/20 11:33:13;;;;;;;1.63;0.70;;;31.70;99.90;;;;;;5005376;28;20049;-82
2023/06/20 11:35:43;;;;;;;1.05;0.60;;;31.60;99.90;;;;;;4987401;28;20030;-82
2023/06/20 11:38:14;;;;;;;1.42;0.73;;;32.00;99.90;;;;;;4990224;28;20034;-82
2023/06/20 11:40:41;;;;;;;1.33;0.60;;;32.40;99.90;;;;;;4973042;28;20026;-82
2023/06/20 11:43:07;;;;;;;1.40;0.50;;;32.70;99.90;;;;;;4989877;28;20513;-83
2023/06/20 11:45:34;;;;;;;1.10;0.50;;;32.90;99.50;;;;;;4971272;28;20030;-82
2023/06/20 11:48:14;;;;;;;0.88;0.50;;;32.70;99.70;;;;;;4989419;28;20042;-82
2023/06/20 11:50:43;;;;;;;1.15;0.60;;;32.00;99.50;;;;;;4988003;28;20495;-83
2023/06/20 11:53:28;;;;;;;2.53;0.50;;;32.20;99.90;;;;;;4990518;28;20130;-82
2023/06/20 11:55:56;;;;;;;1.00;0.40;;;32.40;99.90;;;;;;4987900;28;20030;-81
2023/06/20 11:58:22;;;;;;;1.23;0.57;;;32.80;99.20;;;;;;4988134;28;20502;-82
2023/06/20 12:01:08;;;;;;;0.93;0.55;;;32.00;99.90;;;;;;4973316;28;20044;-82
2023/06/20 12:03:36;;;;;;;1.90;0.60;;;32.30;99.90;;;;;;4991401;28;20073;-82
2023/06/20 12:06:02;;;;;;;1.80;0.60;;;32.30;99.90;;;;;;4971527;28;21013;-82
2023/06/20 12:08:34;;;;;;;1.13;0.50;;;32.10;99.90;;;;;;4988128;28;20042;-83
2023/06/20 12:11:02;;;;;;;1.20;0.55;;;32.50;99.90;;;;;;4989146;28;20042;-83
2023/06/20 12:13:28;;;;;;;1.35;0.50;;;33.10;99.50;;;;;;4988439;28;20033;-82
2023/06/20 12:15:54;;;;;;;1.30;0.60;;;33.20;99.00;;;;;;4991565;28;20065;-83
2023/06/20 12:18:20;;;;;;;0.75;0.40;;;33.20;99.70;;;;;;4993757;28;20857;-83
2023/06/20 12:20:46;;;;;;;0.60;0.30;;;33.40;98.80;;;;;;5009093;28;20033;-83
2023/06/20 12:23:13;;;;;;;1.58;0.40;;;33.50;99.00;;;;;;4972944;28;20049;-83
2023/06/20 12:25:38;;;;;;;1.10;0.40;;;33.30;99.00;;;;;;4973396;28;20769;-83
2023/06/20 12:28:04;;;;;;;2.08;0.40;;;33.30;98.60;;;;;;4992606;28;20345;-82
2023/06/20 12:30:30;;;;;;;1.17;0.50;;;33.00;99.40;;;;;;4993086;28;20033;-82
2023/06/20 12:32:59;;;;;;;0.80;0.40;;;32.60;99.70;;;;;;4992413;28;20101;-82
2023/06/20 12:35:27;;;;;;;0.85;0.40;;;32.90;98.40;;;;;;4992262;28;20148;-82
2023/06/20 12:37:53;;;;;;;;;;;32.80;99.40;;;;;;4992402;28;20030;-82
2023/06/20 12:40:19;;;;;;;1.10;0.40;;;33.00;98.70;;;;;;4976220;28;20295;-82
2023/06/20 12:42:44;;;;;;;0.80;0.30;;;32.80;98.30;;;;;;4994951;28;20043;-83
2023/06/20 12:45:11;;;;;;;0.95;0.40;;;33.30;98.40;;;;;;5000626;28;20393;-82
2023/06/20 12:47:40;;;;;;;1.30;0.35;;;33.50;98.00;;;;;;4999795;28;20056;-83
2023/06/20 12:50:06;;;;;;;0.90;0.40;;;33.50;98.00;;;;;;5015706;28;20117;-82
2023/06/20 12:52:32;;;;;;;1.13;0.40;;;33.40;98.20;;;;;;4998751;28;20033;-82